EW6993 Weather Reports


time (UTC)temp
C
wind
direction
speed
KPH
gust
KPH
rain 1hr
cm
rain 24hr
cm
rain mn
cm
humidity
%
barometer
mb
20200229083129 8 42 0.0 0.0 0.00 0.03 0.00 92 1014.0
20200229081757 9 42 0.0 0.0 0.00 0.03 0.00 92 1014.2
20200229080201 9 42 0.0 0.0 0.00 0.03 0.00 92 1014.3
20200229074738 9 42 0.0 0.0 0.00 0.03 0.00 92 1014.4
20200229073242 10 42 0.0 0.0 0.00 0.03 0.00 92 1014.5
20200229071649 10 42 0.0 0.0 0.00 0.03 0.00 91 1014.6
20200229070208 10 42 0.0 0.0 0.00 0.03 0.00 91 1014.5
20200229064620 10 42 0.0 0.0 0.00 0.03 0.03 91 1014.7
20200229063147 11 42 0.0 0.0 0.00 0.03 0.03 91 1014.9
20200229061546 11 42 0.0 0.0 0.00 0.03 0.03 90 1015.0
20200229060056 11 42 0.0 0.0 0.00 0.03 0.03 87 1015.0
20200229054633 11 42 0.0 0.0 0.00 0.03 0.03 90 1015.1
20200229053129 11 42 0.0 0.0 0.00 0.03 0.03 89 1015.2
20200229051614 12 42 0.0 0.0 0.00 0.03 0.03 88 1015.2
20200229050121 12 42 0.0 0.0 0.00 0.03 0.03 89 1015.4
20200229044628 12 42 0.0 0.0 0.00 0.03 0.03 88 1015.4
20200229043126 12 42 0.0 0.0 0.00 0.03 0.03 86 1015.3
20200229041549 13 42 0.0 0.0 0.00 0.03 0.03 87 1015.4
20200229040113 13 42 0.0 0.0 0.00 0.03 0.03 85 1015.2
20200229034546 13 42 0.0 0.0 0.00 0.03 0.03 86 1015.1
20200229033044 14 42 0.0 0.0 0.00 0.03 0.03 83 1015.1
20200229031612 14 42 0.0 0.0 0.00 0.03 0.03 83 1014.8
20200229030117 15 42 0.0 0.0 0.00 0.03 0.03 82 1014.8
20200229023143 16 42 0.0 0.0 0.00 0.03 0.03 78 1014.5
20200229021558 17 42 0.0 0.0 0.00 0.03 0.03 75 1014.4
20200229020048 18 42 0.0 0.0 0.00 0.03 0.03 72 1014.3
20200229014527 19 42 0.0 0.0 0.00 0.03 0.03 70 1014.1
20200229013027 20 42 0.0 1.6 0.00 0.03 0.03 68 1014.0
20200229011533 20 42 3.2 6.4 0.00 0.03 0.03 65 1013.9
20200229010024 21 31 1.6 8.0 0.00 0.03 0.03 62 1013.7
20200229004605 21 20 6.4 17.7 0.00 0.03 0.03 60 1013.6
20200229003024 22 26 6.4 16.1 0.00 0.03 0.03 56 1013.3
20200229001546 23 15 8.0 16.1 0.00 0.03 0.03 51 1013.1
20200229000032 23 38 8.0 19.3 0.00 0.03 0.03 49 1013.0
20200228234522 23 355 9.7 16.1 0.00 0.03 0.03 50 1013.0
20200228233049 24 5 6.4 17.7 0.00 0.03 0.03 50 1012.8
20200228231527 25 80 8.0 16.1 0.00 0.03 0.03 43 1012.7
20200228230022 25 9 11.3 19.3 0.00 0.03 0.03 44 1012.8
20200228224551 25 30 9.7 17.7 0.00 0.03 0.03 43 1012.8
20200228223029 25 17 11.3 20.9 0.00 0.03 0.03 42 1012.8
20200228220010 26 51 8.0 17.7 0.00 0.03 0.03 39 1012.6
20200228214519 26 360 11.3 16.1 0.00 0.03 0.03 37 1012.7
20200228210115 26 63 9.7 17.7 0.00 0.03 0.03 37 1013.1
20200228204732 26 19 8.0 20.9 0.00 0.03 0.03 36 1013.3
20200228203148 26 25 4.8 19.3 0.00 0.03 0.03 35 1013.7
20200228201627 26 53 9.7 17.7 0.00 0.03 0.03 34 1013.9
20200228200149 26 50 9.7 19.3 0.00 0.03 0.03 29 1014.2
20200228194559 26 28 9.7 19.3 0.00 0.03 0.03 31 1014.5
20200228193056 26 9 8.0 16.1 0.00 0.03 0.03 30 1014.6
20200228191617 25 9 11.3 19.3 0.00 0.03 0.03 32 1014.8
20200228190107 25 39 12.9 19.3 0.00 0.03 0.03 33 1015.1
20200228184522 25 5 12.9 17.7 0.00 0.03 0.03 33 1015.5
20200228183027 25 67 9.7 17.7 0.00 0.03 0.03 36 1015.8
20200228181521 25 30 4.8 14.5 0.00 0.03 0.03 34 1015.8
20200228180025 24 28 6.4 16.1 0.00 0.03 0.03 32 1016.0
20200228174517 23 28 0.0 9.7 0.00 0.03 0.03 31 1016.1
20200228173015 23 67 3.2 12.9 0.00 0.03 0.03 32 1016.1
20200228171652 22 22 4.8 16.1 0.00 0.03 0.03 33 1016.1
20200228170141 22 5 6.4 12.9 0.00 0.03 0.03 34 1016.3
20200228164536 21 355 3.2 8.0 0.00 0.03 0.03 38 1016.3
20200228163111 20 355 0.0 0.0 0.00 0.03 0.03 45 1016.2
20200228160035 16 57 0.0 0.0 0.00 0.03 0.03 59 1015.9
20200228154509 15 57 0.0 0.0 0.00 0.03 0.03 78 1015.6
20200228153004 12 57 0.0 0.0 0.00 0.03 0.03 93 1015.4
20200228151608 10 56 0.0 0.0 0.03 0.03 0.03 93 1015.5
20200228150455 7 35 0.0 0.0 0.03 0.03 0.03 93 1015.3
20200228144640 6 35 0.0 0.0 0.03 0.03 0.03 94 1015.2
20200228143122 5 35 0.0 0.0 0.03 0.03 0.03 94 1015.2
20200228141746 5 35 0.0 0.0 0.00 0.00 0.00 94 1014.9
20200228140128 5 35 0.0 0.0 0.00 0.00 0.00 94 1014.8
20200228134654 5 35 0.0 0.0 0.00 0.00 0.00 94 1014.7
20200228131716 5 35 0.0 0.0 0.00 0.00 0.00 94 1014.6
20200228130109 5 35 0.0 0.0 0.00 0.00 0.00 93 1014.4
20200228124611 5 35 0.0 0.0 0.00 0.00 0.00 94 1014.3
20200228123209 5 35 0.0 0.0 0.00 0.00 0.00 93 1014.2
20200228121702 5 35 0.0 0.0 0.00 0.00 0.00 94 1014.1
20200228120054 6 35 0.0 0.0 0.00 0.00 0.00 93 1014.1
20200228113110 6 35 0.0 0.0 0.00 0.00 0.00 93 1014.1
20200228111554 6 35 0.0 0.0 0.00 0.00 0.00 93 1014.0
20200228110035 6 35 0.0 0.0 0.00 0.00 0.00 93 1014.0
20200228104618 6 35 0.0 0.0 0.00 0.00 0.00 93 1014.2
20200228103042 6 35 0.0 0.0 0.00 0.00 0.00 93 1014.2
20200228101534 6 35 0.0 0.0 0.00 0.00 0.00 93 1014.3
20200228100045 7 35 0.0 0.0 0.00 0.00 0.00 93 1014.5
20200228094604 7 35 0.0 0.0 0.00 0.00 0.00 93 1014.5
20200228093139 7 35 0.0 0.0 0.00 0.00 0.00 93 1014.7
20200228090023 7 35 0.0 0.0 0.00 0.00 0.00 93 1015.0
20200228084527 7 35 0.0 0.0 0.00 0.00 0.00 93 1015.0